sensor_id;sensor_type;location;lat;lon;timestamp;P1;durP1;ratioP1;P2;durP2;ratioP2
20026;SDS011;10174;42.688;23.344;2023-05-08T00:01:34;12.77;;;4.97;;
20026;SDS011;10174;42.688;23.344;2023-05-08T00:03:59;10.88;;;5.05;;
20026;SDS011;10174;42.688;23.344;2023-05-08T00:06:25;10.98;;;4.40;;
20026;SDS011;10174;42.688;23.344;2023-05-08T00:08:51;13.95;;;3.95;;
20026;SDS011;10174;42.688;23.344;2023-05-08T00:11:18;12.02;;;4.53;;
20026;SDS011;10174;42.688;23.344;2023-05-08T00:13:43;17.63;;;4.20;;
20026;SDS011;10174;42.688;23.344;2023-05-08T00:16:09;8.63;;;3.83;;
20026;SDS011;10174;42.688;23.344;2023-05-08T00:18:35;7.13;;;3.63;;
20026;SDS011;10174;42.688;23.344;2023-05-08T00:21:02;11.38;;;3.70;;
20026;SDS011;10174;42.688;23.344;2023-05-08T00:23:28;10.50;;;3.80;;
20026;SDS011;10174;42.688;23.344;2023-05-08T00:25:53;7.93;;;4.10;;
20026;SDS011;10174;42.688;23.344;2023-05-08T00:28:19;11.05;;;4.13;;
20026;SDS011;10174;42.688;23.344;2023-05-08T00:30:45;9.85;;;4.15;;
20026;SDS011;10174;42.688;23.344;2023-05-08T00:33:10;10.52;;;3.97;;
20026;SDS011;10174;42.688;23.344;2023-05-08T00:35:35;6.85;;;3.90;;
20026;SDS011;10174;42.688;23.344;2023-05-08T00:38:01;6.15;;;4.22;;
20026;SDS011;10174;42.688;23.344;2023-05-08T00:40:27;8.30;;;3.28;;
20026;SDS011;10174;42.688;23.344;2023-05-08T00:42:52;9.32;;;4.38;;
20026;SDS011;10174;42.688;23.344;2023-05-08T00:45:18;11.68;;;4.93;;
20026;SDS011;10174;42.688;23.344;2023-05-08T00:47:43;9.65;;;3.83;;
20026;SDS011;10174;42.688;23.344;2023-05-08T00:52:34;8.95;;;4.25;;
20026;SDS011;10174;42.688;23.344;2023-05-08T00:55:01;8.23;;;3.92;;
20026;SDS011;10174;42.688;23.344;2023-05-08T00:57:28;10.32;;;4.13;;
20026;SDS011;10174;42.688;23.344;2023-05-08T00:59:56;13.00;;;4.53;;
20026;SDS011;10174;42.688;23.344;2023-05-08T01:02:24;12.15;;;4.30;;
20026;SDS011;10174;42.688;23.344;2023-05-08T01:04:50;13.13;;;6.78;;
20026;SDS011;10174;42.688;23.344;2023-05-08T01:07:17;9.18;;;4.80;;
20026;SDS011;10174;42.688;23.344;2023-05-08T01:09:43;7.15;;;4.22;;
20026;SDS011;10174;42.688;23.344;2023-05-08T01:17:45;8.25;;;4.85;;
20026;SDS011;10174;42.688;23.344;2023-05-08T01:34:34;9.95;;;4.90;;
20026;SDS011;10174;42.688;23.344;2023-05-08T01:37:10;20.05;;;5.25;;
20026;SDS011;10174;42.688;23.344;2023-05-08T01:39:48;8.35;;;4.50;;
20026;SDS011;10174;42.688;23.344;2023-05-08T01:42:32;14.50;;;5.93;;
20026;SDS011;10174;42.688;23.344;2023-05-08T01:45:08;11.55;;;4.82;;
20026;SDS011;10174;42.688;23.344;2023-05-08T01:47:38;8.23;;;5.03;;
20026;SDS011;10174;42.688;23.344;2023-05-08T01:50:13;11.68;;;5.30;;
20026;SDS011;10174;42.688;23.344;2023-05-08T01:52:43;9.32;;;5.25;;
20026;SDS011;10174;42.688;23.344;2023-05-08T01:55:11;12.70;;;5.07;;
20026;SDS011;10174;42.688;23.344;2023-05-08T01:57:44;9.93;;;4.93;;
20026;SDS011;10174;42.688;23.344;2023-05-08T02:00:13;10.18;;;4.82;;
20026;SDS011;10174;42.688;23.344;2023-05-08T02:02:43;20.58;;;5.63;;
20026;SDS011;10174;42.688;23.344;2023-05-08T02:05:10;12.75;;;5.32;;
20026;SDS011;10174;42.688;23.344;2023-05-08T02:07:37;8.93;;;4.43;;
20026;SDS011;10174;42.688;23.344;2023-05-08T02:10:04;11.23;;;5.25;;
20026;SDS011;10174;42.688;23.344;2023-05-08T02:12:32;10.32;;;4.85;;
20026;SDS011;10174;42.688;23.344;2023-05-08T02:14:59;13.15;;;5.47;;
20026;SDS011;10174;42.688;23.344;2023-05-08T02:17:27;15.85;;;5.43;;
20026;SDS011;10174;42.688;23.344;2023-05-08T02:19:55;14.80;;;5.47;;
20026;SDS011;10174;42.688;23.344;2023-05-08T02:22:23;8.35;;;4.68;;
20026;SDS011;10174;42.688;23.344;2023-05-08T02:24:50;11.02;;;5.22;;
20026;SDS011;10174;42.688;23.344;2023-05-08T02:27:21;12.07;;;5.85;;
20026;SDS011;10174;42.688;23.344;2023-05-08T02:29:50;19.55;;;6.10;;
20026;SDS011;10174;42.688;23.344;2023-05-08T02:32:18;15.88;;;5.95;;
20026;SDS011;10174;42.688;23.344;2023-05-08T02:34:47;13.43;;;6.10;;
20026;SDS011;10174;42.688;23.344;2023-05-08T02:37:13;23.40;;;7.00;;
20026;SDS011;10174;42.688;23.344;2023-05-08T02:39:42;16.38;;;6.10;;
20026;SDS011;10174;42.688;23.344;2023-05-08T02:42:09;14.35;;;7.50;;
20026;SDS011;10174;42.688;23.344;2023-05-08T02:44:35;14.00;;;7.30;;
20026;SDS011;10174;42.688;23.344;2023-05-08T02:47:14;14.15;;;7.05;;
20026;SDS011;10174;42.688;23.344;2023-05-08T02:49:47;11.75;;;6.97;;
20026;SDS011;10174;42.688;23.344;2023-05-08T03:00:07;17.73;;;7.95;;
20026;SDS011;10174;42.688;23.344;2023-05-08T03:02:39;17.65;;;8.00;;
20026;SDS011;10174;42.688;23.344;2023-05-08T03:05:25;15.70;;;8.38;;
20026;SDS011;10174;42.688;23.344;2023-05-08T03:08:13;15.48;;;8.05;;
20026;SDS011;10174;42.688;23.344;2023-05-08T03:10:42;21.05;;;8.63;;
20026;SDS011;10174;42.688;23.344;2023-05-08T03:13:10;18.88;;;8.50;;
20026;SDS011;10174;42.688;23.344;2023-05-08T03:15:41;17.60;;;8.32;;
20026;SDS011;10174;42.688;23.344;2023-05-08T03:18:10;19.88;;;8.93;;
20026;SDS011;10174;42.688;23.344;2023-05-08T03:20:42;18.80;;;8.45;;
20026;SDS011;10174;42.688;23.344;2023-05-08T03:23:10;18.88;;;8.55;;
20026;SDS011;10174;42.688;23.344;2023-05-08T03:25:40;13.63;;;8.13;;
20026;SDS011;10174;42.688;23.344;2023-05-08T03:28:07;23.50;;;9.68;;
20026;SDS011;10174;42.688;23.344;2023-05-08T03:30:35;19.15;;;9.15;;
20026;SDS011;10174;42.688;23.344;2023-05-08T03:33:02;26.90;;;9.27;;
20026;SDS011;10174;42.688;23.344;2023-05-08T03:35:30;24.58;;;9.40;;
20026;SDS011;10174;42.688;23.344;2023-05-08T03:37:56;21.83;;;9.38;;
20026;SDS011;10174;42.688;23.344;2023-05-08T03:40:22;33.58;;;8.48;;
20026;SDS011;10174;42.688;23.344;2023-05-08T03:42:47;24.17;;;8.43;;
20026;SDS011;10174;42.688;23.344;2023-05-08T03:45:13;17.75;;;8.52;;
20026;SDS011;10174;42.688;23.344;2023-05-08T03:47:40;18.15;;;8.48;;
20026;SDS011;10174;42.688;23.344;2023-05-08T03:50:08;18.00;;;9.32;;
20026;SDS011;10174;42.688;23.344;2023-05-08T03:52:33;22.40;;;8.82;;
20026;SDS011;10174;42.688;23.344;2023-05-08T03:54:59;32.35;;;9.57;;
20026;SDS011;10174;42.688;23.344;2023-05-08T03:57:30;29.60;;;14.38;;
20026;SDS011;10174;42.688;23.344;2023-05-08T04:00:05;24.40;;;7.90;;
20026;SDS011;10174;42.688;23.344;2023-05-08T04:02:51;28.27;;;8.93;;
20026;SDS011;10174;42.688;23.344;2023-05-08T04:05:35;17.08;;;8.13;;
20026;SDS011;10174;42.688;23.344;2023-05-08T04:08:19;15.60;;;8.25;;
20026;SDS011;10174;42.688;23.344;2023-05-08T04:10:49;35.03;;;9.23;;
20026;SDS011;10174;42.688;23.344;2023-05-08T04:13:22;21.05;;;8.48;;
20026;SDS011;10174;42.688;23.344;2023-05-08T04:15:51;35.45;;;9.13;;
20026;SDS011;10174;42.688;23.344;2023-05-08T04:18:29;19.00;;;8.48;;
20026;SDS011;10174;42.688;23.344;2023-05-08T04:20:57;18.10;;;7.78;;
20026;SDS011;10174;42.688;23.344;2023-05-08T04:23:24;23.05;;;8.90;;
20026;SDS011;10174;42.688;23.344;2023-05-08T04:25:51;20.23;;;8.40;;
20026;SDS011;10174;42.688;23.344;2023-05-08T04:28:19;31.42;;;7.82;;
20026;SDS011;10174;42.688;23.344;2023-05-08T04:30:46;31.08;;;9.20;;
20026;SDS011;10174;42.688;23.344;2023-05-08T04:33:11;25.92;;;8.73;;
20026;SDS011;10174;42.688;23.344;2023-05-08T04:35:38;23.25;;;12.60;;
20026;SDS011;10174;42.688;23.344;2023-05-08T04:38:03;16.88;;;7.63;;
20026;SDS011;10174;42.688;23.344;2023-05-08T04:40:29;15.48;;;6.68;;
20026;SDS011;10174;42.688;23.344;2023-05-08T04:42:54;14.23;;;7.70;;
20026;SDS011;10174;42.688;23.344;2023-05-08T04:45:20;15.98;;;7.63;;
20026;SDS011;10174;42.688;23.344;2023-05-08T04:47:45;10.18;;;6.07;;
20026;SDS011;10174;42.688;23.344;2023-05-08T04:50:11;15.35;;;6.57;;
20026;SDS011;10174;42.688;23.344;2023-05-08T04:52:36;12.73;;;7.43;;
20026;SDS011;10174;42.688;23.344;2023-05-08T04:55:02;15.88;;;8.15;;
20026;SDS011;10174;42.688;23.344;2023-05-08T04:57:27;23.48;;;7.78;;
20026;SDS011;10174;42.688;23.344;2023-05-08T04:59:53;17.98;;;7.72;;
20026;SDS011;10174;42.688;23.344;2023-05-08T05:02:18;16.00;;;8.05;;
20026;SDS011;10174;42.688;23.344;2023-05-08T05:04:43;17.05;;;8.18;;
20026;SDS011;10174;42.688;23.344;2023-05-08T05:07:09;16.73;;;8.35;;
20026;SDS011;10174;42.688;23.344;2023-05-08T05:09:34;15.63;;;8.32;;
20026;SDS011;10174;42.688;23.344;2023-05-08T05:12:04;15.07;;;8.02;;
20026;SDS011;10174;42.688;23.344;2023-05-08T05:14:30;12.85;;;7.72;;
20026;SDS011;10174;42.688;23.344;2023-05-08T05:16:56;14.45;;;8.30;;
20026;SDS011;10174;42.688;23.344;2023-05-08T05:19:21;14.88;;;7.85;;
20026;SDS011;10174;42.688;23.344;2023-05-08T05:21:47;13.80;;;7.90;;
20026;SDS011;10174;42.688;23.344;2023-05-08T05:24:12;18.42;;;8.65;;
20026;SDS011;10174;42.688;23.344;2023-05-08T05:26:37;13.75;;;8.43;;
20026;SDS011;10174;42.688;23.344;2023-05-08T05:29:03;15.40;;;8.85;;
20026;SDS011;10174;42.688;23.344;2023-05-08T05:31:28;16.98;;;8.15;;
20026;SDS011;10174;42.688;23.344;2023-05-08T05:33:54;18.85;;;9.13;;
20026;SDS011;10174;42.688;23.344;2023-05-08T05:36:20;16.00;;;9.10;;
20026;SDS011;10174;42.688;23.344;2023-05-08T05:38:46;19.15;;;9.30;;
20026;SDS011;10174;42.688;23.344;2023-05-08T05:41:11;19.20;;;9.32;;
20026;SDS011;10174;42.688;23.344;2023-05-08T05:43:37;13.90;;;9.48;;
20026;SDS011;10174;42.688;23.344;2023-05-08T05:46:03;15.38;;;9.57;;
20026;SDS011;10174;42.688;23.344;2023-05-08T05:48:30;23.48;;;9.85;;
20026;SDS011;10174;42.688;23.344;2023-05-08T05:50:55;24.95;;;12.95;;
20026;SDS011;10174;42.688;23.344;2023-05-08T05:53:20;23.70;;;12.57;;
20026;SDS011;10174;42.688;23.344;2023-05-08T05:55:46;28.77;;;10.50;;
20026;SDS011;10174;42.688;23.344;2023-05-08T05:58:11;22.20;;;10.93;;
20026;SDS011;10174;42.688;23.344;2023-05-08T06:00:37;20.92;;;10.60;;
20026;SDS011;10174;42.688;23.344;2023-05-08T06:03:02;24.42;;;11.05;;
20026;SDS011;10174;42.688;23.344;2023-05-08T06:05:28;19.58;;;11.02;;
20026;SDS011;10174;42.688;23.344;2023-05-08T06:07:54;21.35;;;10.93;;
20026;SDS011;10174;42.688;23.344;2023-05-08T06:10:19;22.45;;;9.65;;
20026;SDS011;10174;42.688;23.344;2023-05-08T06:12:44;24.20;;;9.20;;
20026;SDS011;10174;42.688;23.344;2023-05-08T06:15:10;17.52;;;8.60;;
20026;SDS011;10174;42.688;23.344;2023-05-08T06:17:36;19.40;;;9.23;;
20026;SDS011;10174;42.688;23.344;2023-05-08T06:20:02;40.45;;;10.70;;
20026;SDS011;10174;42.688;23.344;2023-05-08T06:22:28;17.27;;;9.68;;
20026;SDS011;10174;42.688;23.344;2023-05-08T06:24:54;23.77;;;9.95;;
20026;SDS011;10174;42.688;23.344;2023-05-08T06:27:21;19.00;;;9.95;;
20026;SDS011;10174;42.688;23.344;2023-05-08T06:29:47;25.73;;;11.05;;
20026;SDS011;10174;42.688;23.344;2023-05-08T06:32:15;18.92;;;8.98;;
20026;SDS011;10174;42.688;23.344;2023-05-08T06:34:42;19.70;;;9.60;;
20026;SDS011;10174;42.688;23.344;2023-05-08T06:37:07;19.33;;;8.88;;
20026;SDS011;10174;42.688;23.344;2023-05-08T06:39:32;18.83;;;9.35;;
20026;SDS011;10174;42.688;23.344;2023-05-08T06:41:58;19.70;;;10.32;;
20026;SDS011;10174;42.688;23.344;2023-05-08T06:44:23;19.35;;;9.82;;
20026;SDS011;10174;42.688;23.344;2023-05-08T06:46:48;20.27;;;9.15;;
20026;SDS011;10174;42.688;23.344;2023-05-08T06:49:14;21.05;;;9.60;;
20026;SDS011;10174;42.688;23.344;2023-05-08T06:51:39;22.25;;;9.27;;
20026;SDS011;10174;42.688;23.344;2023-05-08T06:54:05;21.60;;;9.43;;
20026;SDS011;10174;42.688;23.344;2023-05-08T06:56:32;24.58;;;9.40;;
20026;SDS011;10174;42.688;23.344;2023-05-08T06:59:00;18.23;;;9.07;;
20026;SDS011;10174;42.688;23.344;2023-05-08T07:01:26;16.23;;;9.07;;
20026;SDS011;10174;42.688;23.344;2023-05-08T07:03:51;23.80;;;9.30;;
20026;SDS011;10174;42.688;23.344;2023-05-08T07:06:17;18.88;;;8.90;;
20026;SDS011;10174;42.688;23.344;2023-05-08T07:08:42;22.08;;;9.38;;
20026;SDS011;10174;42.688;23.344;2023-05-08T07:11:07;26.50;;;9.02;;
20026;SDS011;10174;42.688;23.344;2023-05-08T07:13:34;17.55;;;9.48;;
20026;SDS011;10174;42.688;23.344;2023-05-08T07:16:00;19.38;;;8.68;;
20026;SDS011;10174;42.688;23.344;2023-05-08T07:18:26;17.60;;;8.80;;
20026;SDS011;10174;42.688;23.344;2023-05-08T07:20:51;18.48;;;8.93;;
20026;SDS011;10174;42.688;23.344;2023-05-08T07:23:16;18.42;;;8.25;;
20026;SDS011;10174;42.688;23.344;2023-05-08T07:25:42;16.15;;;8.57;;
20026;SDS011;10174;42.688;23.344;2023-05-08T07:28:07;24.48;;;9.82;;
20026;SDS011;10174;42.688;23.344;2023-05-08T07:30:33;13.68;;;8.35;;
20026;SDS011;10174;42.688;23.344;2023-05-08T07:32:58;16.20;;;8.73;;
20026;SDS011;10174;42.688;23.344;2023-05-08T07:35:24;32.45;;;9.35;;
20026;SDS011;10174;42.688;23.344;2023-05-08T07:37:49;21.52;;;9.02;;
20026;SDS011;10174;42.688;23.344;2023-05-08T07:40:15;23.30;;;10.10;;
20026;SDS011;10174;42.688;23.344;2023-05-08T07:42:41;21.08;;;9.88;;
20026;SDS011;10174;42.688;23.344;2023-05-08T07:45:08;21.30;;;9.68;;
20026;SDS011;10174;42.688;23.344;2023-05-08T07:47:35;21.88;;;8.57;;
20026;SDS011;10174;42.688;23.344;2023-05-08T07:50:01;22.85;;;9.07;;
20026;SDS011;10174;42.688;23.344;2023-05-08T07:52:26;12.13;;;7.10;;
20026;SDS011;10174;42.688;23.344;2023-05-08T07:54:51;18.40;;;9.18;;
20026;SDS011;10174;42.688;23.344;2023-05-08T07:57:17;18.55;;;9.68;;
20026;SDS011;10174;42.688;23.344;2023-05-08T07:59:43;20.75;;;9.98;;
20026;SDS011;10174;42.688;23.344;2023-05-08T08:02:09;18.25;;;7.78;;
20026;SDS011;10174;42.688;23.344;2023-05-08T08:04:34;19.35;;;7.65;;
20026;SDS011;10174;42.688;23.344;2023-05-08T08:06:59;22.50;;;7.60;;
20026;SDS011;10174;42.688;23.344;2023-05-08T08:09:25;11.65;;;6.70;;
20026;SDS011;10174;42.688;23.344;2023-05-08T08:11:50;15.18;;;7.18;;
20026;SDS011;10174;42.688;23.344;2023-05-08T08:14:15;15.23;;;7.18;;
20026;SDS011;10174;42.688;23.344;2023-05-08T08:16:41;12.48;;;6.70;;
20026;SDS011;10174;42.688;23.344;2023-05-08T08:19:07;14.20;;;7.22;;
20026;SDS011;10174;42.688;23.344;2023-05-08T08:21:32;17.25;;;7.50;;
20026;SDS011;10174;42.688;23.344;2023-05-08T08:23:58;17.35;;;7.47;;
20026;SDS011;10174;42.688;23.344;2023-05-08T08:26:23;17.95;;;6.80;;
20026;SDS011;10174;42.688;23.344;2023-05-08T08:28:49;14.73;;;6.68;;
20026;SDS011;10174;42.688;23.344;2023-05-08T08:31:15;52.10;;;8.75;;
20026;SDS011;10174;42.688;23.344;2023-05-08T08:33:41;13.90;;;6.65;;
20026;SDS011;10174;42.688;23.344;2023-05-08T08:36:13;18.45;;;6.90;;
20026;SDS011;10174;42.688;23.344;2023-05-08T08:38:39;15.20;;;6.82;;
20026;SDS011;10174;42.688;23.344;2023-05-08T08:41:04;16.63;;;6.65;;
20026;SDS011;10174;42.688;23.344;2023-05-08T08:43:30;13.57;;;6.28;;
20026;SDS011;10174;42.688;23.344;2023-05-08T08:45:55;21.02;;;6.70;;
20026;SDS011;10174;42.688;23.344;2023-05-08T08:48:23;17.13;;;7.22;;
20026;SDS011;10174;42.688;23.344;2023-05-08T08:50:52;12.63;;;6.35;;
20026;SDS011;10174;42.688;23.344;2023-05-08T08:53:28;12.10;;;6.07;;
20026;SDS011;10174;42.688;23.344;2023-05-08T08:55:59;20.45;;;6.93;;
20026;SDS011;10174;42.688;23.344;2023-05-08T09:00:57;13.07;;;6.80;;
20026;SDS011;10174;42.688;23.344;2023-05-08T09:03:24;16.65;;;6.07;;
20026;SDS011;10174;42.688;23.344;2023-05-08T09:05:51;16.83;;;6.47;;
20026;SDS011;10174;42.688;23.344;2023-05-08T09:08:17;14.20;;;6.63;;
20026;SDS011;10174;42.688;23.344;2023-05-08T09:10:43;13.45;;;6.70;;
20026;SDS011;10174;42.688;23.344;2023-05-08T09:13:10;13.98;;;6.15;;
20026;SDS011;10174;42.688;23.344;2023-05-08T09:15:35;16.52;;;6.28;;
20026;SDS011;10174;42.688;23.344;2023-05-08T09:18:01;13.50;;;5.97;;
20026;SDS011;10174;42.688;23.344;2023-05-08T09:20:27;10.38;;;5.90;;
20026;SDS011;10174;42.688;23.344;2023-05-08T09:22:53;11.00;;;6.43;;
20026;SDS011;10174;42.688;23.344;2023-05-08T09:25:19;13.18;;;6.55;;
20026;SDS011;10174;42.688;23.344;2023-05-08T09:27:45;16.58;;;6.53;;
20026;SDS011;10174;42.688;23.344;2023-05-08T09:30:11;14.45;;;6.85;;
20026;SDS011;10174;42.688;23.344;2023-05-08T09:32:39;20.15;;;7.13;;
20026;SDS011;10174;42.688;23.344;2023-05-08T09:35:06;22.15;;;6.72;;
20026;SDS011;10174;42.688;23.344;2023-05-08T09:37:33;20.90;;;7.03;;
20026;SDS011;10174;42.688;23.344;2023-05-08T09:40:18;21.02;;;7.65;;
20026;SDS011;10174;42.688;23.344;2023-05-08T09:42:45;15.00;;;7.63;;
20026;SDS011;10174;42.688;23.344;2023-05-08T09:45:24;17.02;;;7.28;;
20026;SDS011;10174;42.688;23.344;2023-05-08T09:47:54;20.73;;;8.32;;
20026;SDS011;10174;42.688;23.344;2023-05-08T09:50:20;16.90;;;6.78;;
20026;SDS011;10174;42.688;23.344;2023-05-08T09:52:46;12.45;;;6.38;;
20026;SDS011;10174;42.688;23.344;2023-05-08T09:55:13;15.38;;;6.95;;
20026;SDS011;10174;42.688;23.344;2023-05-08T09:57:39;17.77;;;6.38;;
20026;SDS011;10174;42.688;23.344;2023-05-08T10:00:16;10.95;;;6.10;;
20026;SDS011;10174;42.688;23.344;2023-05-08T10:02:52;11.02;;;6.15;;
20026;SDS011;10174;42.688;23.344;2023-05-08T10:05:23;11.98;;;6.68;;
20026;SDS011;10174;42.688;23.344;2023-05-08T10:07:50;15.52;;;6.35;;
20026;SDS011;10174;42.688;23.344;2023-05-08T10:10:21;16.85;;;6.20;;
20026;SDS011;10174;42.688;23.344;2023-05-08T10:12:51;12.10;;;5.85;;
20026;SDS011;10174;42.688;23.344;2023-05-08T10:15:28;10.90;;;6.53;;
20026;SDS011;10174;42.688;23.344;2023-05-08T10:18:04;12.30;;;6.00;;
20026;SDS011;10174;42.688;23.344;2023-05-08T10:22:58;13.88;;;7.45;;
20026;SDS011;10174;42.688;23.344;2023-05-08T10:25:25;12.00;;;6.68;;
20026;SDS011;10174;42.688;23.344;2023-05-08T10:28:07;10.98;;;5.82;;
20026;SDS011;10174;42.688;23.344;2023-05-08T10:30:37;21.95;;;6.75;;
20026;SDS011;10174;42.688;23.344;2023-05-08T10:33:12;11.80;;;6.30;;
20026;SDS011;10174;42.688;23.344;2023-05-08T10:35:39;22.65;;;7.03;;
20026;SDS011;10174;42.688;23.344;2023-05-08T10:38:07;13.05;;;6.18;;
20026;SDS011;10174;42.688;23.344;2023-05-08T10:40:33;16.70;;;7.03;;
20026;SDS011;10174;42.688;23.344;2023-05-08T10:42:59;12.93;;;6.55;;
20026;SDS011;10174;42.688;23.344;2023-05-08T10:45:25;12.02;;;6.68;;
20026;SDS011;10174;42.688;23.344;2023-05-08T10:53:16;11.38;;;6.95;;
20026;SDS011;10174;42.688;23.344;2023-05-08T10:55:45;7.22;;;5.70;;
20026;SDS011;10174;42.688;23.344;2023-05-08T10:58:14;9.20;;;5.70;;
20026;SDS011;10174;42.688;23.344;2023-05-08T11:03:29;9.63;;;5.55;;
20026;SDS011;10174;42.688;23.344;2023-05-08T11:05:56;26.10;;;5.55;;
20026;SDS011;10174;42.688;23.344;2023-05-08T11:08:25;9.68;;;5.10;;
20026;SDS011;10174;42.688;23.344;2023-05-08T11:13:31;11.05;;;5.75;;
20026;SDS011;10174;42.688;23.344;2023-05-08T11:15:58;7.50;;;5.23;;
20026;SDS011;10174;42.688;23.344;2023-05-08T11:18:24;13.23;;;5.85;;
20026;SDS011;10174;42.688;23.344;2023-05-08T11:20:57;14.27;;;5.47;;
20026;SDS011;10174;42.688;23.344;2023-05-08T11:23:26;10.15;;;5.00;;
20026;SDS011;10174;42.688;23.344;2023-05-08T11:26:12;8.75;;;5.35;;
20026;SDS011;10174;42.688;23.344;2023-05-08T11:31:47;10.50;;;4.93;;
20026;SDS011;10174;42.688;23.344;2023-05-08T11:37:08;7.72;;;4.75;;
20026;SDS011;10174;42.688;23.344;2023-05-08T11:39:43;8.45;;;5.07;;
20026;SDS011;10174;42.688;23.344;2023-05-08T11:45:09;7.00;;;5.03;;
20026;SDS011;10174;42.688;23.344;2023-05-08T11:47:38;12.32;;;5.07;;
20026;SDS011;10174;42.688;23.344;2023-05-08T11:50:09;12.52;;;5.40;;
20026;SDS011;10174;42.688;23.344;2023-05-08T11:52:36;6.35;;;5.30;;
20026;SDS011;10174;42.688;23.344;2023-05-08T11:55:06;8.98;;;4.97;;
20026;SDS011;10174;42.688;23.344;2023-05-08T11:57:33;9.32;;;5.30;;
20026;SDS011;10174;42.688;23.344;2023-05-08T12:02:41;7.32;;;4.50;;
20026;SDS011;10174;42.688;23.344;2023-05-08T12:05:09;10.73;;;4.80;;
20026;SDS011;10174;42.688;23.344;2023-05-08T12:07:41;8.90;;;5.03;;
20026;SDS011;10174;42.688;23.344;2023-05-08T12:10:11;12.43;;;5.13;;
20026;SDS011;10174;42.688;23.344;2023-05-08T12:12:38;9.70;;;5.30;;
20026;SDS011;10174;42.688;23.344;2023-05-08T12:15:07;8.52;;;4.80;;
20026;SDS011;10174;42.688;23.344;2023-05-08T12:17:37;10.40;;;5.20;;
20026;SDS011;10174;42.688;23.344;2023-05-08T12:20:16;10.18;;;5.10;;
20026;SDS011;10174;42.688;23.344;2023-05-08T12:22:48;7.13;;;4.40;;
20026;SDS011;10174;42.688;23.344;2023-05-08T12:25:15;7.40;;;4.55;;
20026;SDS011;10174;42.688;23.344;2023-05-08T12:27:41;7.43;;;4.38;;
20026;SDS011;10174;42.688;23.344;2023-05-08T12:30:08;7.93;;;3.85;;
20026;SDS011;10174;42.688;23.344;2023-05-08T12:32:36;10.13;;;4.57;;
20026;SDS011;10174;42.688;23.344;2023-05-08T12:35:07;7.88;;;4.30;;
20026;SDS011;10174;42.688;23.344;2023-05-08T12:37:34;6.72;;;4.13;;
20026;SDS011;10174;42.688;23.344;2023-05-08T12:39:59;6.57;;;4.35;;
20026;SDS011;10174;42.688;23.344;2023-05-08T12:42:41;5.93;;;3.78;;
20026;SDS011;10174;42.688;23.344;2023-05-08T12:45:16;7.05;;;3.72;;
20026;SDS011;10174;42.688;23.344;2023-05-08T12:47:45;5.85;;;4.22;;
20026;SDS011;10174;42.688;23.344;2023-05-08T12:50:18;4.55;;;3.63;;
20026;SDS011;10174;42.688;23.344;2023-05-08T12:52:45;8.00;;;4.13;;
20026;SDS011;10174;42.688;23.344;2023-05-08T12:58:02;7.38;;;4.30;;
20026;SDS011;10174;42.688;23.344;2023-05-08T13:00:49;6.85;;;3.70;;
20026;SDS011;10174;42.688;23.344;2023-05-08T13:05:52;10.88;;;4.90;;
20026;SDS011;10174;42.688;23.344;2023-05-08T13:08:19;14.30;;;5.78;;
20026;SDS011;10174;42.688;23.344;2023-05-08T13:10:53;17.77;;;6.32;;
20026;SDS011;10174;42.688;23.344;2023-05-08T13:13:24;25.10;;;6.93;;
20026;SDS011;10174;42.688;23.344;2023-05-08T13:15:51;15.40;;;6.53;;
20026;SDS011;10174;42.688;23.344;2023-05-08T13:18:18;21.00;;;6.55;;
20026;SDS011;10174;42.688;23.344;2023-05-08T13:20:45;11.23;;;6.03;;
20026;SDS011;10174;42.688;23.344;2023-05-08T13:23:10;11.57;;;5.68;;
20026;SDS011;10174;42.688;23.344;2023-05-08T13:25:37;12.57;;;5.72;;
20026;SDS011;10174;42.688;23.344;2023-05-08T13:28:03;14.52;;;5.25;;
20026;SDS011;10174;42.688;23.344;2023-05-08T13:30:29;7.57;;;5.28;;
20026;SDS011;10174;42.688;23.344;2023-05-08T13:32:55;13.23;;;6.28;;
20026;SDS011;10174;42.688;23.344;2023-05-08T13:35:21;14.77;;;6.65;;
20026;SDS011;10174;42.688;23.344;2023-05-08T13:37:47;12.43;;;5.80;;
20026;SDS011;10174;42.688;23.344;2023-05-08T13:40:13;15.00;;;5.97;;
20026;SDS011;10174;42.688;23.344;2023-05-08T13:42:39;11.27;;;5.65;;
20026;SDS011;10174;42.688;23.344;2023-05-08T13:45:05;21.48;;;5.65;;
20026;SDS011;10174;42.688;23.344;2023-05-08T13:47:32;11.88;;;5.85;;
20026;SDS011;10174;42.688;23.344;2023-05-08T13:49:57;18.23;;;5.75;;
20026;SDS011;10174;42.688;23.344;2023-05-08T13:52:23;11.25;;;5.50;;
20026;SDS011;10174;42.688;23.344;2023-05-08T13:54:48;12.00;;;6.13;;
20026;SDS011;10174;42.688;23.344;2023-05-08T13:57:14;15.27;;;5.72;;
20026;SDS011;10174;42.688;23.344;2023-05-08T13:59:39;11.77;;;5.97;;
20026;SDS011;10174;42.688;23.344;2023-05-08T14:02:05;8.00;;;5.90;;
20026;SDS011;10174;42.688;23.344;2023-05-08T14:04:30;9.70;;;5.72;;
20026;SDS011;10174;42.688;23.344;2023-05-08T14:06:56;15.02;;;5.85;;
20026;SDS011;10174;42.688;23.344;2023-05-08T14:09:21;8.15;;;5.47;;
20026;SDS011;10174;42.688;23.344;2023-05-08T14:11:47;9.65;;;5.85;;
20026;SDS011;10174;42.688;23.344;2023-05-08T14:14:12;13.05;;;5.93;;
20026;SDS011;10174;42.688;23.344;2023-05-08T14:16:38;11.55;;;6.00;;
20026;SDS011;10174;42.688;23.344;2023-05-08T14:19:03;10.20;;;5.80;;
20026;SDS011;10174;42.688;23.344;2023-05-08T14:21:44;11.93;;;5.80;;
20026;SDS011;10174;42.688;23.344;2023-05-08T14:24:10;9.25;;;6.68;;
20026;SDS011;10174;42.688;23.344;2023-05-08T14:26:35;9.23;;;5.85;;
20026;SDS011;10174;42.688;23.344;2023-05-08T14:29:02;14.30;;;6.75;;
20026;SDS011;10174;42.688;23.344;2023-05-08T14:31:27;14.35;;;7.22;;
20026;SDS011;10174;42.688;23.344;2023-05-08T14:33:53;11.57;;;5.90;;
20026;SDS011;10174;42.688;23.344;2023-05-08T14:36:18;18.33;;;6.25;;
20026;SDS011;10174;42.688;23.344;2023-05-08T14:38:43;11.05;;;5.93;;
20026;SDS011;10174;42.688;23.344;2023-05-08T14:41:09;8.27;;;5.05;;
20026;SDS011;10174;42.688;23.344;2023-05-08T14:43:34;7.28;;;4.57;;
20026;SDS011;10174;42.688;23.344;2023-05-08T14:46:00;9.45;;;4.50;;
20026;SDS011;10174;42.688;23.344;2023-05-08T14:48:25;6.20;;;4.00;;
20026;SDS011;10174;42.688;23.344;2023-05-08T14:50:51;14.73;;;3.80;;
20026;SDS011;10174;42.688;23.344;2023-05-08T14:53:17;11.35;;;4.13;;
20026;SDS011;10174;42.688;23.344;2023-05-08T14:55:43;8.73;;;4.00;;
20026;SDS011;10174;42.688;23.344;2023-05-08T14:58:08;13.07;;;4.30;;
20026;SDS011;10174;42.688;23.344;2023-05-08T15:00:34;7.85;;;3.70;;
20026;SDS011;10174;42.688;23.344;2023-05-08T15:02:59;13.70;;;4.18;;
20026;SDS011;10174;42.688;23.344;2023-05-08T15:05:24;9.77;;;4.03;;
20026;SDS011;10174;42.688;23.344;2023-05-08T15:07:50;6.88;;;3.58;;
20026;SDS011;10174;42.688;23.344;2023-05-08T15:10:15;7.07;;;3.20;;
20026;SDS011;10174;42.688;23.344;2023-05-08T15:12:41;8.18;;;3.95;;
20026;SDS011;10174;42.688;23.344;2023-05-08T15:15:06;7.65;;;3.53;;
20026;SDS011;10174;42.688;23.344;2023-05-08T15:17:32;10.63;;;3.90;;
20026;SDS011;10174;42.688;23.344;2023-05-08T15:20:00;12.65;;;4.00;;
20026;SDS011;10174;42.688;23.344;2023-05-08T15:22:26;5.75;;;3.97;;
20026;SDS011;10174;42.688;23.344;2023-05-08T15:24:52;8.70;;;3.65;;
20026;SDS011;10174;42.688;23.344;2023-05-08T15:27:18;14.10;;;3.90;;
20026;SDS011;10174;42.688;23.344;2023-05-08T15:29:43;9.15;;;4.20;;